Time;durP1;ratioP1;P1;durP2;ratioP2;P2;SDS_P1;SDS_P2;PMS_P1;PMS_P2;Temp;Humidity;BMP_temperature;BMP_pressure;BME280_temperature;BME280_humidity;BME280_pressure;Samples;Min_cycle;Max_cycle;Signal;HPM_P1;HPM_P2
2022/06/13 00:01:57;;;;;;;11.02;4.40;;;14.90;99.90;;;;;;5097619;28;20040;-73
2022/06/13 00:04:23;;;;;;;11.23;4.55;;;14.90;99.90;;;;;;5110024;28;20478;-73
2022/06/13 00:06:49;;;;;;;10.00;4.60;;;14.90;99.90;;;;;;5105763;28;20040;-72
2022/06/13 00:09:14;;;;;;;13.40;5.07;;;14.90;99.90;;;;;;5092754;28;20035;-72
2022/06/13 00:11:41;;;;;;;12.13;5.20;;;14.90;99.90;;;;;;5087576;28;20120;-73
2022/06/13 00:14:07;;;;;;;10.82;5.07;;;14.80;99.90;;;;;;5107738;28;20188;-73
2022/06/13 00:16:33;;;;;;;13.32;5.20;;;14.90;99.90;;;;;;5075415;28;20131;-73
2022/06/13 00:18:59;;;;;;;14.73;5.50;;;14.90;99.90;;;;;;5106048;28;20072;-73
2022/06/13 00:21:31;;;;;;;11.38;5.13;;;14.90;99.90;;;;;;5077555;28;20039;-73
2022/06/13 00:23:59;;;;;;;12.65;5.40;;;14.90;99.90;;;;;;5103321;28;20051;-73
2022/06/13 00:26:26;;;;;;;17.42;5.70;;;15.00;99.90;;;;;;5074670;28;20044;-73
2022/06/13 00:28:52;;;;;;;;;;;15.00;99.90;;;;;;5085439;28;20047;-73
2022/06/13 00:31:18;;;;;;;10.57;5.75;;;14.90;99.90;;;;;;5082780;28;19943;-73
2022/06/13 00:33:44;;;;;;;10.52;5.65;;;14.90;99.90;;;;;;5102203;28;20128;-73
2022/06/13 00:36:10;;;;;;;14.98;5.75;;;14.90;99.90;;;;;;5085561;28;20042;-73
2022/06/13 00:38:39;;;;;;;12.63;5.22;;;14.90;99.90;;;;;;5105053;28;20062;-73
2022/06/13 00:41:15;;;;;;;14.25;6.10;;;14.90;99.90;;;;;;5105434;28;20192;-73
2022/06/13 00:43:43;;;;;;;11.68;5.40;;;15.00;99.90;;;;;;5080291;28;20181;-73
2022/06/13 00:46:36;;;;;;;12.73;5.65;;;14.90;99.90;;;;;;5095712;28;20047;-73
2022/06/13 00:49:09;;;;;;;13.13;5.88;;;14.90;99.90;;;;;;5101872;28;20076;-73
2022/06/13 00:51:40;;;;;;;14.93;5.75;;;14.90;99.90;;;;;;5075385;28;20043;-73
2022/06/13 00:54:06;;;;;;;14.05;5.10;;;14.80;99.90;;;;;;5095269;28;20035;-73
2022/06/13 00:56:35;;;;;;;13.30;5.30;;;14.80;99.90;;;;;;5098861;28;20437;-73
2022/06/13 00:59:04;;;;;;;12.27;5.43;;;14.80;99.90;;;;;;5103112;28;20502;-73
2022/06/13 01:01:32;;;;;;;15.43;5.65;;;14.80;99.90;;;;;;5077526;28;20069;-73
2022/06/13 01:04:01;;;;;;;12.45;5.60;;;14.80;99.90;;;;;;5085569;28;20114;-73
2022/06/13 01:06:29;;;;;;;12.07;6.00;;;14.80;99.90;;;;;;5106215;28;20039;-73
2022/06/13 01:08:55;;;;;;;11.80;5.57;;;14.80;99.90;;;;;;5109442;28;20623;-72
2022/06/13 01:11:24;;;;;;;13.68;5.55;;;14.80;99.90;;;;;;5083638;28;20402;-72
2022/06/13 01:14:32;;;;;;;11.20;5.32;;;14.80;99.90;;;;;;5104294;28;20056;-73
2022/06/13 01:17:07;;;;;;;10.07;5.60;;;14.80;99.90;;;;;;5034343;28;20082;-72
2022/06/13 01:19:51;;;;;;;13.73;6.28;;;14.80;99.90;;;;;;5085419;28;20044;-73
2022/06/13 01:22:54;;;;;;;13.30;5.57;;;14.80;99.90;;;;;;5104718;28;20046;-73
2022/06/13 01:25:25;;;;;;;12.25;5.57;;;14.80;99.90;;;;;;5103465;28;20058;-73
2022/06/13 01:28:03;;;;;;;15.88;6.53;;;14.80;99.90;;;;;;5078099;28;20483;-73
2022/06/13 01:30:53;;;;;;;11.75;6.20;;;14.80;99.90;;;;;;5086178;28;20056;-73
2022/06/13 01:34:03;;;;;;;14.20;6.18;;;14.90;99.90;;;;;;5071661;28;20203;-73
2022/06/13 01:37:04;;;;;;;16.33;6.60;;;14.80;99.90;;;;;;5102861;28;20135;-72
2022/06/13 01:40:04;;;;;;;14.35;6.18;;;14.90;99.90;;;;;;5073695;28;20060;-73
2022/06/13 01:42:41;;;;;;;12.73;5.90;;;14.90;99.90;;;;;;5100666;28;20040;-73
2022/06/13 01:45:21;;;;;;;12.90;5.78;;;14.90;99.90;;;;;;5106857;28;20039;-73
2022/06/13 01:47:57;;;;;;;15.95;7.43;;;14.90;99.90;;;;;;5096537;28;20465;-73
2022/06/13 01:50:25;;;;;;;12.98;5.75;;;14.80;99.90;;;;;;5074165;28;20051;-73
2022/06/13 01:52:54;;;;;;;14.90;6.25;;;14.80;99.90;;;;;;5092839;28;20441;-73
2022/06/13 01:55:45;;;;;;;15.82;6.65;;;14.80;99.90;;;;;;5089162;28;20048;-72
2022/06/13 01:58:13;;;;;;;12.07;6.30;;;14.80;99.90;;;;;;5105956;28;20035;-73
2022/06/13 02:00:42;;;;;;;13.60;6.43;;;14.80;99.90;;;;;;5072415;28;20051;-73
2022/06/13 02:03:34;;;;;;;14.32;6.50;;;14.80;99.90;;;;;;5088736;28;20105;-73
2022/06/13 02:06:20;;;;;;;12.27;6.20;;;14.70;99.90;;;;;;5087834;28;20521;-73
2022/06/13 02:09:06;;;;;;;15.48;6.60;;;14.70;99.90;;;;;;5088663;28;20483;-72
2022/06/13 02:11:43;;;;;;;11.90;6.43;;;14.80;99.90;;;;;;5105015;28;20044;-73
2022/06/13 02:14:09;;;;;;;12.20;6.45;;;14.80;99.90;;;;;;5090183;28;20047;-72
2022/06/13 02:16:42;;;;;;;14.18;6.90;;;14.80;99.90;;;;;;5108227;28;20055;-73
2022/06/13 02:19:31;;;;;;;14.48;7.00;;;14.70;99.90;;;;;;5089525;28;20044;-72
2022/06/13 02:21:59;;;;;;;13.10;7.25;;;14.70;99.90;;;;;;5101979;28;20063;-73
2022/06/13 02:24:33;;;;;;;12.35;6.80;;;14.70;99.90;;;;;;5107395;28;20448;-73
2022/06/13 02:26:59;;;;;;;16.40;7.30;;;14.80;99.90;;;;;;5097137;28;20042;-71
2022/06/13 02:29:29;;;;;;;15.60;7.53;;;14.70;99.90;;;;;;5088145;28;20043;-73
2022/06/13 02:32:01;;;;;;;11.68;6.38;;;14.70;99.90;;;;;;5090770;28;20063;-72
2022/06/13 02:34:55;;;;;;;12.43;7.07;;;14.70;99.90;;;;;;5080893;28;20545;-72
2022/06/13 02:37:29;;;;;;;12.75;7.28;;;14.70;99.90;;;;;;5079500;28;20059;-73
2022/06/13 02:39:54;;;;;;;16.50;7.70;;;14.60;99.90;;;;;;5108808;28;20044;-72
2022/06/13 02:42:26;;;;;;;15.73;7.22;;;14.60;99.90;;;;;;5090848;28;20050;-72
2022/06/13 02:45:18;;;;;;;14.95;8.02;;;14.60;99.90;;;;;;5094590;28;20048;-73
2022/06/13 02:48:05;;;;;;;13.88;7.63;;;14.60;99.90;;;;;;5112031;28;20054;-73
2022/06/13 02:50:57;;;;;;;13.18;6.60;;;14.60;99.90;;;;;;5111477;28;20445;-73
2022/06/13 02:53:29;;;;;;;14.30;7.30;;;14.60;99.90;;;;;;5080833;28;20532;-73
2022/06/13 02:56:20;;;;;;;14.02;6.82;;;14.60;99.90;;;;;;5110787;28;20044;-72
2022/06/13 02:58:55;;;;;;;13.07;7.00;;;14.60;99.90;;;;;;5094087;28;20039;-72
2022/06/13 03:01:28;;;;;;;14.60;8.07;;;14.60;99.90;;;;;;5107633;28;20510;-72
2022/06/13 03:04:06;;;;;;;16.10;7.80;;;14.60;99.90;;;;;;5092371;28;20039;-72
2022/06/13 03:06:41;;;;;;;12.55;7.28;;;14.50;99.90;;;;;;5111828;28;20122;-72
2022/06/13 03:09:12;;;;;;;15.35;7.22;;;14.50;99.90;;;;;;5111951;28;20044;-72
2022/06/13 03:11:58;;;;;;;16.55;7.97;;;14.50;99.90;;;;;;5083208;28;20475;-72
2022/06/13 03:14:58;;;;;;;14.05;7.55;;;14.50;99.90;;;;;;5096629;28;20047;-72
2022/06/13 03:17:44;;;;;;;13.07;7.38;;;14.50;99.90;;;;;;5110305;28;20063;-72
2022/06/13 03:20:14;;;;;;;14.43;7.22;;;14.40;99.90;;;;;;5092203;28;20047;-72
2022/06/13 03:23:07;;;;;;;14.75;7.28;;;14.30;99.90;;;;;;5093849;28;20390;-72
2022/06/13 03:25:51;;;;;;;13.23;6.78;;;14.20;99.90;;;;;;5099725;28;20155;-72
2022/06/13 03:28:28;;;;;;;14.65;7.15;;;14.30;99.90;;;;;;5080763;28;20427;-72
2022/06/13 03:31:04;;;;;;;17.10;6.67;;;14.30;99.90;;;;;;5080490;28;20066;-72
2022/06/13 03:33:46;;;;;;;14.10;7.35;;;14.30;99.90;;;;;;5096100;28;20367;-72
2022/06/13 03:36:24;;;;;;;12.43;6.60;;;14.30;99.90;;;;;;5102929;28;20040;-73
2022/06/13 03:39:02;;;;;;;13.30;6.82;;;14.30;99.90;;;;;;5091251;28;20491;-73
2022/06/13 03:41:33;;;;;;;11.95;6.68;;;14.30;99.90;;;;;;5110573;28;20067;-73
2022/06/13 03:44:04;;;;;;;14.68;7.10;;;14.30;99.90;;;;;;5104732;28;20501;-73
2022/06/13 03:46:53;;;;;;;10.93;6.72;;;14.20;99.90;;;;;;5092583;28;20096;-73
2022/06/13 03:49:36;;;;;;;17.67;7.40;;;14.30;99.90;;;;;;5110856;28;20075;-73
2022/06/13 03:52:06;;;;;;;14.02;7.07;;;14.30;99.90;;;;;;5110379;28;20050;-71
2022/06/13 03:54:41;;;;;;;11.98;7.07;;;14.30;99.90;;;;;;5090408;28;20039;-72
2022/06/13 03:57:22;;;;;;;16.23;7.32;;;14.30;99.90;;;;;;5108636;28;20040;-72
2022/06/13 04:00:08;;;;;;;13.20;6.90;;;14.30;99.90;;;;;;5103509;28;20118;-72
2022/06/13 04:02:37;;;;;;;12.65;6.32;;;14.30;99.90;;;;;;5099544;28;20039;-73
2022/06/13 04:05:03;;;;;;;9.88;6.50;;;14.30;99.90;;;;;;5109921;28;20047;-72
2022/06/13 04:07:34;;;;;;;12.45;7.05;;;14.30;99.90;;;;;;5108870;28;20036;-72
2022/06/13 04:10:07;;;;;;;11.80;6.88;;;14.30;99.90;;;;;;5109689;28;20047;-71
2022/06/13 04:12:48;;;;;;;13.98;7.38;;;14.30;99.90;;;;;;5109801;28;20509;-72
2022/06/13 04:15:20;;;;;;;13.45;6.70;;;14.30;99.90;;;;;;5110926;28;20118;-72
2022/06/13 04:17:54;;;;;;;14.93;7.13;;;14.30;99.90;;;;;;5108152;28;20043;-72
2022/06/13 04:20:20;;;;;;;12.02;7.18;;;14.30;99.90;;;;;;5093281;28;20101;-72
2022/06/13 04:23:14;;;;;;;13.60;7.10;;;14.30;99.90;;;;;;5090498;28;20445;-72
2022/06/13 04:25:58;;;;;;;15.30;7.40;;;14.30;99.90;;;;;;5079192;28;20052;-72
2022/06/13 04:28:32;;;;;;;14.07;6.80;;;14.30;99.90;;;;;;5096789;28;20474;-72
2022/06/13 04:31:01;;;;;;;12.85;7.40;;;14.30;99.90;;;;;;5089669;28;20044;-72
2022/06/13 04:33:38;;;;;;;15.48;7.57;;;14.40;99.90;;;;;;5089974;28;20062;-72
2022/06/13 04:36:07;;;;;;;16.73;7.72;;;14.40;99.90;;;;;;5089344;28;20048;-72
2022/06/13 04:38:33;;;;;;;17.60;8.35;;;14.40;99.90;;;;;;5081982;28;20093;-72
2022/06/13 04:41:03;;;;;;;15.13;7.65;;;14.50;99.90;;;;;;5105523;28;20039;-72
2022/06/13 04:43:34;;;;;;;18.52;8.50;;;14.50;99.90;;;;;;5082469;28;20040;-71
2022/06/13 04:46:19;;;;;;;16.95;8.20;;;14.50;99.90;;;;;;5106892;28;20035;-72
2022/06/13 04:48:48;;;;;;;14.60;7.78;;;14.50;99.90;;;;;;5098149;28;20162;-72
2022/06/13 04:51:36;;;;;;;14.32;7.82;;;14.60;99.90;;;;;;5092152;28;20047;-72
2022/06/13 04:54:31;;;;;;;15.23;7.80;;;14.60;99.90;;;;;;5086472;28;20062;-72
2022/06/13 04:56:58;;;;;;;17.20;8.77;;;14.70;99.90;;;;;;5103471;28;20059;-72
2022/06/13 04:59:25;;;;;;;15.45;8.13;;;14.80;99.90;;;;;;5107166;28;20039;-72
2022/06/13 05:01:51;;;;;;;16.03;8.50;;;14.80;99.90;;;;;;5108212;28;20043;-72
2022/06/13 05:04:26;;;;;;;17.58;8.70;;;14.90;99.90;;;;;;5109562;28;20130;-72
2022/06/13 05:06:55;;;;;;;16.42;9.25;;;15.00;99.90;;;;;;5109310;28;20048;-72
2022/06/13 05:09:35;;;;;;;19.60;9.25;;;15.10;99.90;;;;;;5108053;28;20042;-72
2022/06/13 05:12:15;;;;;;;17.90;9.45;;;15.20;99.90;;;;;;5102480;28;20047;-72
2022/06/13 05:15:19;;;;;;;18.60;9.75;;;15.30;99.90;;;;;;5089541;28;20067;-72
2022/06/13 05:18:13;;;;;;;20.58;10.35;;;15.50;99.90;;;;;;5104576;28;20541;-72
2022/06/13 05:21:03;;;;;;;17.10;9.25;;;15.60;99.90;;;;;;5108485;28;20047;-72
2022/06/13 05:23:37;;;;;;;17.27;9.10;;;15.70;99.90;;;;;;5085952;28;20072;-72
2022/06/13 05:26:04;;;;;;;17.70;9.30;;;15.70;99.90;;;;;;5089530;28;20039;-72
2022/06/13 05:28:33;;;;;;;17.65;9.38;;;15.80;99.90;;;;;;5095530;28;20040;-72
2022/06/13 05:31:13;;;;;;;18.42;9.05;;;15.80;99.90;;;;;;5105472;28;20066;-72
2022/06/13 05:33:42;;;;;;;17.40;8.93;;;15.70;99.90;;;;;;5090399;28;20055;-72
2022/06/13 05:36:12;;;;;;;15.40;8.60;;;15.70;99.90;;;;;;5104085;28;20716;-72
2022/06/13 05:38:54;;;;;;;14.30;8.23;;;15.60;99.90;;;;;;5107603;28;20032;-72
2022/06/13 05:41:20;;;;;;;20.77;8.30;;;15.60;99.90;;;;;;5108982;28;20044;-72
2022/06/13 05:43:46;;;;;;;15.98;7.53;;;15.70;99.90;;;;;;5091431;28;20042;-72
2022/06/13 05:46:36;;;;;;;16.13;8.30;;;15.70;99.90;;;;;;5093416;28;20542;-74
2022/06/13 05:49:02;;;;;;;19.05;8.48;;;15.80;99.90;;;;;;5093152;28;20429;-71
2022/06/13 05:51:28;;;;;;;17.10;7.78;;;15.80;99.90;;;;;;5095552;28;20054;-71
2022/06/13 05:53:55;;;;;;;15.48;6.93;;;16.00;99.90;;;;;;5105502;28;20047;-72
2022/06/13 05:56:21;;;;;;;17.15;6.80;;;16.10;99.90;;;;;;5088781;28;20048;-69
2022/06/13 05:58:47;;;;;;;13.35;6.03;;;16.20;99.90;;;;;;5104683;28;20074;-70
2022/06/13 06:01:15;;;;;;;12.38;6.32;;;16.30;99.90;;;;;;5105621;28;20577;-72
2022/06/13 06:03:42;;;;;;;11.70;5.28;;;16.30;99.90;;;;;;5099077;28;20036;-71
2022/06/13 06:06:13;;;;;;;14.93;6.03;;;16.30;99.90;;;;;;5087100;28;20032;-72
2022/06/13 06:08:40;;;;;;;14.43;5.35;;;16.30;99.90;;;;;;5091050;28;20051;-71
2022/06/13 06:11:05;;;;;;;11.77;5.18;;;16.30;99.90;;;;;;5106407;28;20395;-71
2022/06/13 06:13:31;;;;;;;11.93;5.47;;;16.20;99.90;;;;;;5107799;28;20035;-71
2022/06/13 06:16:00;;;;;;;11.35;4.57;;;16.20;99.90;;;;;;5102654;28;20043;-72
2022/06/13 06:18:26;;;;;;;12.52;5.50;;;16.20;99.90;;;;;;5106955;28;20043;-72
2022/06/13 06:20:52;;;;;;;12.13;5.30;;;16.20;99.90;;;;;;5102617;28;20052;-71
2022/06/13 06:23:18;;;;;;;11.93;5.05;;;16.20;99.90;;;;;;5096682;28;20055;-71
2022/06/13 06:25:47;;;;;;;11.05;4.47;;;16.20;99.90;;;;;;5099301;28;20118;-72
2022/06/13 06:28:19;;;;;;;8.73;3.83;;;16.20;99.90;;;;;;5100716;28;20039;-71
2022/06/13 06:30:46;;;;;;;10.73;3.67;;;16.30;99.90;;;;;;5098005;28;20052;-72
2022/06/13 06:33:12;;;;;;;10.68;3.88;;;16.40;99.90;;;;;;5096280;28;20055;-73
2022/06/13 06:35:38;;;;;;;10.23;3.88;;;16.50;99.90;;;;;;5099249;28;20028;-70
2022/06/13 06:38:04;;;;;;;10.68;4.03;;;16.50;99.90;;;;;;5093124;28;20059;-74
2022/06/13 06:40:29;;;;;;;9.90;3.67;;;16.60;99.90;;;;;;5075450;28;20044;-73
2022/06/13 06:42:55;;;;;;;10.63;3.70;;;16.60;99.90;;;;;;5091734;28;20047;-73
2022/06/13 06:45:23;;;;;;;10.32;3.22;;;16.60;99.90;;;;;;5100511;28;20130;-73
2022/06/13 06:47:49;;;;;;;8.55;3.10;;;16.70;99.90;;;;;;5090496;28;20044;-73
2022/06/13 06:50:18;;;;;;;9.02;3.50;;;16.70;99.90;;;;;;5094481;28;20083;-73
2022/06/13 06:52:44;;;;;;;11.85;4.03;;;16.70;99.90;;;;;;5091509;28;20044;-73
2022/06/13 07:00:50;;;;;;;8.45;2.80;;;17.00;99.90;;;;;;5103377;28;20051;-72
2022/06/13 07:03:16;;;;;;;7.82;2.80;;;16.90;99.90;;;;;;5073156;28;20079;-73
2022/06/13 07:05:42;;;;;;;11.05;3.58;;;16.90;99.90;;;;;;5083341;28;20092;-73
2022/06/13 07:08:08;;;;;;;9.40;3.03;;;16.80;99.90;;;;;;5090340;28;20040;-72
2022/06/13 07:10:34;;;;;;;9.48;2.85;;;16.80;99.90;;;;;;5096458;28;20123;-72
2022/06/13 07:12:59;;;;;;;9.95;2.90;;;16.80;99.90;;;;;;5081585;28;20422;-72
2022/06/13 07:15:25;;;;;;;8.23;2.67;;;16.70;99.90;;;;;;5073763;28;20105;-71
2022/06/13 07:17:51;;;;;;;8.90;3.17;;;16.70;99.90;;;;;;5094202;28;20039;-75
2022/06/13 07:20:17;;;;;;;6.95;2.50;;;16.70;99.90;;;;;;5105545;28;22015;-76
2022/06/13 07:22:49;;;;;;;5.65;2.40;;;16.80;99.90;;;;;;5109527;28;20471;-73
2022/06/13 07:25:23;;;;;;;8.15;2.40;;;16.90;99.90;;;;;;5111422;28;20048;-74
2022/06/13 07:27:49;;;;;;;8.63;2.55;;;16.90;99.90;;;;;;5104811;28;20135;-75
2022/06/13 07:30:16;;;;;;;11.32;3.33;;;16.90;99.90;;;;;;5110509;28;20150;-75
2022/06/13 07:32:43;;;;;;;8.85;2.40;;;16.80;99.90;;;;;;5095503;28;20044;-75
2022/06/13 07:35:10;;;;;;;8.90;2.40;;;16.80;99.90;;;;;;5111368;28;20039;-74
2022/06/13 07:40:20;;;;;;;7.22;2.33;;;16.40;99.90;;;;;;5109324;28;20364;-74
2022/06/13 07:42:53;;;;;;;5.28;1.80;;;16.10;99.90;;;;;;5078912;28;20051;-74
2022/06/13 07:45:22;;;;;;;7.70;2.20;;;15.90;99.90;;;;;;5076396;28;20395;-76
2022/06/13 07:47:51;;;;;;;8.32;2.30;;;15.60;99.90;;;;;;5105850;28;20114;-74
2022/06/13 07:50:20;;;;;;;8.57;2.15;;;15.20;99.90;;;;;;5098209;28;20044;-75
2022/06/13 07:52:47;;;;;;;2.78;1.40;;;14.90;99.90;;;;;;5109047;28;20047;-75
2022/06/13 07:55:13;;;;;;;4.30;1.15;;;14.70;99.90;;;;;;5109195;28;20371;-75
2022/06/13 07:57:39;;;;;;;2.08;0.93;;;14.50;99.90;;;;;;5086963;28;20039;-74
2022/06/13 08:00:11;;;;;;;3.65;1.30;;;14.50;99.90;;;;;;5095527;28;20491;-74
2022/06/13 08:02:38;;;;;;;3.10;1.42;;;14.60;99.90;;;;;;5083656;28;20102;-71
2022/06/13 08:05:05;;;;;;;3.40;1.30;;;14.60;99.90;;;;;;5095343;28;20639;-73
2022/06/13 08:07:30;;;;;;;5.82;2.10;;;14.70;99.90;;;;;;5096542;28;20398;-74
2022/06/13 08:09:57;;;;;;;42.85;12.40;;;14.70;99.90;;;;;;5092461;28;20051;-75
2022/06/13 08:12:24;;;;;;;9.45;3.97;;;14.80;99.90;;;;;;5092170;28;20440;-74
2022/06/13 08:14:50;;;;;;;13.48;7.57;;;14.90;99.90;;;;;;5105653;28;20689;-74
2022/06/13 08:17:19;;;;;;;3.92;1.75;;;15.00;99.90;;;;;;5107974;28;20044;-74
2022/06/13 08:19:45;;;;;;;4.28;2.95;;;15.10;99.90;;;;;;5092979;28;20052;-74
2022/06/13 08:22:10;;;;;;;6.45;4.90;;;15.30;99.90;;;;;;5096636;28;20044;-74
2022/06/13 08:24:36;;;;;;;7.82;5.65;;;15.50;99.90;;;;;;5103141;28;20040;-75
2022/06/13 08:27:03;;;;;;;4.32;1.70;;;15.60;99.90;;;;;;5088729;28;20047;-73
2022/06/13 08:29:29;;;;;;;1.83;1.20;;;15.70;99.90;;;;;;5104425;28;20047;-74
2022/06/13 08:31:55;;;;;;;2.65;1.10;;;15.90;99.90;;;;;;5090647;28;20113;-71
2022/06/13 08:34:21;;;;;;;2.85;1.20;;;16.20;99.90;;;;;;5095290;28;20105;-75
2022/06/13 08:36:47;;;;;;;4.15;1.40;;;16.30;99.90;;;;;;5104903;28;20035;-76
2022/06/13 08:39:14;;;;;;;4.78;1.98;;;16.50;99.90;;;;;;5105371;28;20105;-76
2022/06/13 08:42:00;;;;;;;3.25;1.40;;;16.60;99.90;;;;;;5108743;28;20069;-77
2022/06/13 08:44:48;;;;;;;4.60;1.55;;;16.70;99.90;;;;;;5081369;28;20043;-74
2022/06/13 08:47:33;;;;;;;3.63;1.80;;;16.90;99.90;;;;;;5088187;28;20160;-71
2022/06/13 08:50:37;;;;;;;9.07;1.95;;;17.00;99.90;;;;;;5088502;28;20517;-71
2022/06/13 08:53:15;;;;;;;4.90;1.75;;;17.20;99.90;;;;;;5100123;28;20047;-73
2022/06/13 08:55:48;;;;;;;4.88;1.77;;;17.30;99.90;;;;;;5108305;28;20044;-73
2022/06/13 08:58:32;;;;;;;5.97;1.50;;;17.50;99.90;;;;;;5109745;28;20807;-73
2022/06/13 09:01:03;;;;;;;7.05;2.00;;;17.60;99.90;;;;;;5091088;28;20054;-72
2022/06/13 09:03:42;;;;;;;10.13;2.25;;;17.70;99.90;;;;;;5105888;28;20035;-71
2022/06/13 09:06:19;;;;;;;4.78;1.65;;;17.80;99.90;;;;;;5089423;28;20043;-71
2022/06/13 09:09:03;;;;;;;7.25;2.08;;;17.80;99.90;;;;;;5088582;28;20491;-70
2022/06/13 09:11:34;;;;;;;6.60;1.98;;;17.90;99.90;;;;;;5094448;28;20039;-72
2022/06/13 09:14:15;;;;;;;5.95;1.40;;;17.90;99.90;;;;;;5106506;28;20490;-72
2022/06/13 09:16:45;;;;;;;5.03;1.40;;;17.80;99.90;;;;;;5108965;28;20040;-72
2022/06/13 09:19:22;;;;;;;5.85;1.50;;;17.70;99.90;;;;;;5089177;28;20071;-72
2022/06/13 09:22:10;;;;;;;7.70;2.00;;;17.70;99.90;;;;;;5091094;28;20490;-73
2022/06/13 09:24:54;;;;;;;6.45;1.80;;;17.70;99.90;;;;;;5086201;28;20032;-73
2022/06/13 09:27:24;;;;;;;8.45;1.85;;;17.90;99.90;;;;;;5094954;28;20096;-74
2022/06/13 09:30:06;;;;;;;4.78;1.50;;;17.90;99.90;;;;;;5105476;28;20102;-74
2022/06/13 09:32:38;;;;;;;7.15;1.45;;;17.90;99.90;;;;;;5102939;28;20092;-76
2022/06/13 09:35:20;;;;;;;7.38;1.52;;;17.90;99.90;;;;;;5087972;28;20066;-75
2022/06/13 09:38:09;;;;;;;6.35;1.27;;;17.90;99.90;;;;;;5098344;28;20042;-74
2022/06/13 09:40:51;;;;;;;5.88;1.50;;;17.80;99.90;;;;;;5091012;28;20089;-74
2022/06/13 09:43:22;;;;;;;5.25;1.40;;;17.70;99.90;;;;;;5090196;28;20051;-74
2022/06/13 09:46:01;;;;;;;4.55;1.10;;;17.40;99.90;;;;;;5109687;28;20438;-74
2022/06/13 09:48:39;;;;;;;4.22;1.10;;;17.40;99.90;;;;;;5101565;28;20426;-74
2022/06/13 09:51:21;;;;;;;7.32;1.50;;;17.30;99.90;;;;;;5081008;28;20048;-72
2022/06/13 09:54:04;;;;;;;5.18;1.40;;;17.30;99.90;;;;;;5107368;28;20051;-74
2022/06/13 09:56:58;;;;;;;4.80;1.10;;;17.50;99.90;;;;;;5093177;28;20036;-73
2022/06/13 09:59:36;;;;;;;4.18;1.33;;;17.70;99.90;;;;;;5091468;28;20056;-73
2022/06/13 10:02:07;;;;;;;5.53;1.30;;;17.90;99.90;;;;;;5099216;28;20075;-73
2022/06/13 10:05:02;;;;;;;6.78;1.40;;;18.10;99.90;;;;;;5104283;28;20055;-74
2022/06/13 10:07:48;;;;;;;4.88;1.67;;;18.20;99.90;;;;;;5079190;28;20444;-73
2022/06/13 10:10:48;;;;;;;7.57;1.23;;;18.30;99.90;;;;;;5103823;28;20040;-74
2022/06/13 10:13:34;;;;;;;5.40;1.20;;;18.40;99.90;;;;;;5082670;28;20054;-73
2022/06/13 10:16:00;;;;;;;;;;;18.50;99.90;;;;;;5106577;28;20487;-75
2022/06/13 10:18:50;;;;;;;7.97;1.60;;;18.50;99.90;;;;;;5086332;28;19963;-73
2022/06/13 10:21:42;;;;;;;6.85;1.35;;;18.50;99.90;;;;;;5099568;28;20126;-74
2022/06/13 10:24:11;;;;;;;4.68;1.30;;;18.30;99.90;;;;;;5095979;28;20448;-74
2022/06/13 10:26:56;;;;;;;5.30;1.48;;;18.10;99.90;;;;;;5083650;28;20056;-71
2022/06/13 10:29:27;;;;;;;6.22;1.30;;;17.90;99.90;;;;;;5085441;28;20083;-72
2022/06/13 10:32:23;;;;;;;7.95;1.50;;;17.80;99.90;;;;;;5099693;28;20047;-73
2022/06/13 10:35:01;;;;;;;6.43;1.50;;;17.60;99.90;;;;;;5081467;28;20087;-74
2022/06/13 10:37:49;;;;;;;7.40;1.50;;;17.40;99.90;;;;;;5085945;28;20074;-74
2022/06/13 10:40:16;;;;;;;5.88;1.38;;;17.50;99.90;;;;;;5103001;28;20143;-75
2022/06/13 10:42:42;;;;;;;7.63;1.40;;;17.60;99.90;;;;;;5085532;28;20040;-76
2022/06/13 10:45:11;;;;;;;5.90;1.40;;;17.80;99.90;;;;;;5103552;28;20052;-75
2022/06/13 10:47:49;;;;;;;5.82;1.35;;;18.10;99.90;;;;;;5099799;28;20045;-76
2022/06/13 10:50:34;;;;;;;4.43;1.20;;;18.30;99.90;;;;;;5092556;28;20048;-74
2022/06/13 10:53:06;;;;;;;4.50;1.20;;;18.40;99.80;;;;;;5092346;28;20127;-83
2022/06/13 10:55:39;;;;;;;4.43;1.30;;;18.50;98.20;;;;;;5097390;28;20047;-76
2022/06/13 10:58:24;;;;;;;5.45;1.40;;;18.60;98.40;;;;;;5111137;28;20044;-76
2022/06/13 11:01:02;;;;;;;5.18;1.23;;;18.80;99.90;;;;;;5104755;28;20043;-71
2022/06/13 11:03:28;;;;;;;7.00;1.10;;;19.10;99.70;;;;;;5092059;28;20438;-74
2022/06/13 11:05:55;;;;;;;5.82;1.20;;;19.00;97.30;;;;;;5091224;28;20052;-75
2022/06/13 11:08:23;;;;;;;7.53;1.30;;;19.00;93.70;;;;;;5105604;28;20044;-74
2022/06/13 11:11:01;;;;;;;6.03;1.40;;;19.00;92.20;;;;;;5101792;28;20050;-77
2022/06/13 11:13:36;;;;;;;6.05;1.20;;;19.20;95.80;;;;;;5094726;28;20155;-76
2022/06/13 11:24:44;;;;;;;6.35;1.35;;;19.40;87.60;;;;;;5092006;28;20055;-77
2022/06/13 11:27:40;;;;;;;6.57;1.73;;;19.30;95.50;;;;;;5087249;28;20051;-77
2022/06/13 11:30:31;;;;;;;7.45;1.25;;;19.40;97.00;;;;;;5100598;28;20063;-81
2022/06/13 11:33:09;;;;;;;5.13;1.40;;;19.30;94.50;;;;;;5106815;28;21004;-84
2022/06/13 11:35:40;;;;;;;7.38;1.70;;;19.00;95.20;;;;;;5098361;28;20512;-75
2022/06/13 11:38:26;;;;;;;3.85;1.15;;;18.70;95.20;;;;;;5105076;28;20047;-74
2022/06/13 11:41:15;;;;;;;6.53;1.48;;;18.60;96.20;;;;;;5077107;28;20225;-72
2022/06/13 11:43:50;;;;;;;4.63;1.25;;;18.60;97.60;;;;;;5094583;28;20117;-73
2022/06/13 11:46:30;;;;;;;7.75;1.48;;;18.50;97.80;;;;;;5102460;28;20044;-76
2022/06/13 11:49:00;;;;;;;5.13;1.83;;;18.40;97.30;;;;;;5102926;28;20460;-75
2022/06/13 11:51:29;;;;;;;7.10;1.50;;;18.30;95.40;;;;;;5084927;28;20048;-74
2022/06/13 11:53:58;;;;;;;8.68;1.77;;;18.20;97.30;;;;;;5080402;28;20591;-75
2022/06/13 11:56:30;;;;;;;7.70;1.83;;;18.00;98.10;;;;;;5081305;28;20028;-74
2022/06/13 11:59:00;;;;;;;6.90;1.83;;;17.90;98.80;;;;;;5105970;28;20039;-76
2022/06/13 12:01:37;;;;;;;5.97;1.70;;;17.80;99.80;;;;;;5090317;28;20074;-75
2022/06/13 12:04:15;;;;;;;5.07;1.70;;;17.60;99.90;;;;;;5096746;28;20068;-73
2022/06/13 12:06:58;;;;;;;7.88;1.85;;;17.50;99.90;;;;;;5101130;28;20070;-74
2022/06/13 12:09:32;;;;;;;6.75;1.92;;;17.40;99.90;;;;;;5095175;28;20082;-74
2022/06/13 12:12:07;;;;;;;10.25;2.13;;;17.40;99.90;;;;;;5105879;28;20079;-72
2022/06/13 12:14:41;;;;;;;9.02;1.50;;;17.50;99.90;;;;;;5080864;28;20597;-73
2022/06/13 12:17:10;;;;;;;7.38;1.88;;;17.80;99.90;;;;;;5091956;28;20048;-73
2022/06/13 12:19:54;;;;;;;7.72;1.85;;;18.00;99.90;;;;;;5094044;28;20039;-72
2022/06/13 12:22:33;;;;;;;5.97;1.58;;;18.20;99.90;;;;;;5089078;28;20036;-72
2022/06/13 12:25:08;;;;;;;6.13;1.30;;;18.30;99.90;;;;;;5104962;28;20047;-73
2022/06/13 12:27:42;;;;;;;7.35;1.30;;;18.50;99.90;;;;;;5090926;28;20031;-73
2022/06/13 12:30:33;;;;;;;7.40;1.70;;;18.50;98.80;;;;;;5101569;28;20147;-72
2022/06/13 12:33:04;;;;;;;5.65;1.23;;;18.40;97.80;;;;;;5108437;28;20109;-72
2022/06/13 12:35:59;;;;;;;5.90;1.30;;;18.40;97.90;;;;;;5094572;28;20044;-73
2022/06/13 12:38:51;;;;;;;7.95;1.98;;;18.50;97.20;;;;;;5108884;28;20050;-72
2022/06/13 12:41:37;;;;;;;6.22;1.75;;;18.70;99.90;;;;;;5086278;28;20051;-72
2022/06/13 12:44:22;;;;;;;8.93;2.10;;;18.70;98.80;;;;;;5102370;28;20079;-72
2022/06/13 12:46:47;;;;;;;5.50;1.90;;;18.80;99.30;;;;;;5070073;28;20060;-72
2022/06/13 12:50:01;;;;;;;6.10;1.83;;;18.60;99.90;;;;;;5089549;28;20044;-72
2022/06/13 12:52:53;;;;;;;9.77;1.90;;;18.60;98.70;;;;;;5067719;28;20109;-73
2022/06/13 12:55:25;;;;;;;7.32;1.60;;;18.40;98.50;;;;;;5069499;28;20145;-72
2022/06/13 12:57:59;;;;;;;6.63;1.83;;;18.30;98.30;;;;;;5088781;28;20372;-72
2022/06/13 13:01:04;;;;;;;6.70;1.42;;;18.20;98.30;;;;;;5069910;28;20055;-73
2022/06/13 13:03:30;;;;;;;4.28;1.25;;;18.20;98.70;;;;;;5094109;28;20149;-72
2022/06/13 13:06:17;;;;;;;6.68;1.42;;;18.30;99.90;;;;;;5070610;28;20081;-72
2022/06/13 13:09:06;;;;;;;8.65;1.80;;;18.50;99.50;;;;;;5088508;28;20078;-71
2022/06/13 13:11:39;;;;;;;8.75;1.83;;;18.70;99.90;;;;;;5088236;28;20036;-72
2022/06/13 13:14:04;;;;;;;9.43;1.98;;;18.90;99.60;;;;;;5069660;28;20568;-72
2022/06/13 13:16:40;;;;;;;6.47;1.55;;;19.10;99.40;;;;;;5070566;28;20044;-73
2022/06/13 13:19:23;;;;;;;8.32;1.85;;;19.30;99.90;;;;;;5070590;28;20101;-71
2022/06/13 13:22:00;;;;;;;9.50;2.00;;;19.30;99.40;;;;;;5091415;28;20043;-71
2022/06/13 13:24:38;;;;;;;7.28;1.92;;;19.40;98.50;;;;;;5095240;28;20035;-71
2022/06/13 13:27:07;;;;;;;7.05;1.58;;;19.40;98.80;;;;;;5093049;28;20067;-72
2022/06/13 13:29:50;;;;;;;6.32;1.73;;;19.30;98.10;;;;;;5073057;28;20060;-73
2022/06/13 13:32:54;;;;;;;8.25;1.58;;;19.20;97.30;;;;;;5094597;28;20043;-73
2022/06/13 13:35:33;;;;;;;7.65;1.70;;;19.00;97.60;;;;;;5094584;28;20040;-71
2022/06/13 13:38:21;;;;;;;9.00;2.10;;;18.90;98.80;;;;;;5095431;28;20684;-71
2022/06/13 13:40:52;;;;;;;9.18;1.77;;;19.00;99.90;;;;;;5105219;28;20055;-71
2022/06/13 13:43:25;;;;;;;10.95;2.28;;;19.10;98.80;;;;;;5107525;28;20044;-71